createdAt,value
2019-04-05T00:02:30.426Z,79.67
2019-04-05T00:05:00.821Z,80.27
2019-04-05T00:07:31.184Z,78.37
2019-04-05T00:10:01.608Z,86.95
2019-04-05T00:12:31.972Z,75.20
2019-04-05T00:15:14.633Z,77.53
2019-04-05T00:17:34.413Z,73.30
2019-04-05T00:20:07.157Z,75.83
2019-04-05T00:22:37.519Z,69.87
2019-04-05T00:25:08.429Z,76.30
2019-04-05T00:27:38.822Z,78.17
2019-04-05T00:30:09.813Z,78.27
2019-04-05T00:32:40.255Z,79.57
2019-04-05T00:35:10.712Z,77.40
2019-04-05T00:37:41.219Z,74.43
2019-04-05T00:40:12.260Z,85.97
2019-04-05T00:42:42.639Z,80.73
2019-04-05T00:45:13.270Z,87.10
2019-04-05T00:47:43.693Z,83.80
2019-04-05T00:50:14.297Z,97.82
2019-04-05T00:52:44.680Z,96.63
2019-04-05T00:55:15.053Z,94.87
2019-04-05T00:57:45.511Z,93.60
2019-04-05T01:00:18.295Z,101.80
2019-04-05T01:02:48.893Z,97.60
2019-04-05T01:05:19.413Z,97.17
2019-04-05T01:07:50.053Z,94.77
2019-04-05T01:10:20.620Z,105.43
2019-04-05T01:12:51.095Z,119.20
2019-04-05T01:15:21.503Z,130.90
2019-04-05T01:17:52.095Z,110.33
2019-04-05T01:20:24.960Z,125.87
2019-04-05T01:22:55.543Z,120.20
2019-04-05T01:25:27.919Z,122.93
2019-04-05T01:27:59.513Z,137.87
2019-04-05T01:30:29.807Z,150.27
2019-04-05T01:33:00.244Z,138.23
2019-04-05T01:35:30.615Z,136.80
2019-04-05T01:38:01.201Z,131.47
2019-04-05T01:40:34.395Z,138.23
2019-04-05T01:43:04.919Z,130.67
2019-04-05T01:45:35.448Z,104.80
2019-04-05T01:48:06.489Z,129.67
2019-04-05T01:50:36.963Z,101.27
2019-04-05T01:53:07.393Z,104.00
2019-04-05T01:55:37.734Z,94.30
2019-04-05T01:58:08.191Z,91.77
2019-04-05T02:00:38.565Z,92.83
2019-04-05T02:03:09.043Z,104.80
2019-04-05T02:05:39.413Z,107.77
2019-04-05T02:08:09.908Z,100.03
2019-04-05T02:10:40.277Z,104.27
2019-04-05T02:13:10.720Z,116.93
2019-04-05T02:15:41.086Z,105.60
2019-04-05T02:18:11.508Z,113.07
2019-04-05T02:20:41.794Z,112.80
2019-04-05T02:23:12.176Z,113.50
2019-04-05T02:25:42.623Z,130.93
2019-04-05T02:28:13.177Z,121.70
2019-04-05T02:30:43.628Z,136.13
2019-04-05T02:33:14.043Z,129.10
2019-04-05T02:35:44.449Z,124.27
2019-04-05T02:38:15.020Z,124.03
2019-04-05T02:40:47.359Z,134.07
2019-04-05T02:43:19.247Z,121.63
2019-04-05T02:45:51.319Z,107.00
2019-04-05T02:48:23.640Z,104.50
2019-04-05T02:50:57.156Z,100.90
2019-04-05T02:53:28.364Z,114.45
2019-04-05T02:56:02.759Z,118.67
2019-04-05T02:58:33.104Z,95.63
2019-04-05T03:01:03.614Z,116.37
2019-04-05T03:03:34.610Z,101.33
2019-04-05T03:06:07.453Z,105.00
2019-04-05T03:08:39.872Z,98.23
2019-04-05T03:11:14.882Z,105.63
2019-04-05T03:13:48.288Z,101.43
2019-04-05T03:16:40.304Z,99.60
2019-04-05T03:19:14.632Z,98.93
2019-04-05T03:21:48.174Z,93.87
2019-04-05T03:24:21.532Z,100.47
2019-04-05T03:26:57.654Z,97.87
2019-04-05T03:29:28.123Z,98.90
2019-04-05T03:32:10.433Z,94.57
2019-04-05T03:34:50.285Z,95.00
2019-04-05T03:37:22.278Z,107.57
2019-04-05T03:39:56.912Z,101.60
2019-04-05T03:42:27.886Z,105.83
2019-04-05T03:45:01.226Z,113.83
2019-04-05T03:47:31.516Z,106.60
2019-04-05T03:50:02.129Z,107.10
2019-04-05T03:52:37.180Z,113.13
2019-04-05T03:55:10.692Z,114.77
2019-04-05T03:57:41.102Z,106.47
2019-04-05T04:00:14.412Z,98.50
2019-04-05T04:02:44.828Z,111.30
2019-04-05T04:05:20.560Z,106.20
2019-04-05T04:07:52.659Z,107.20
2019-04-05T04:10:25.820Z,103.03
2019-04-05T04:12:56.774Z,114.93
2019-04-05T04:15:33.448Z,107.70
2019-04-05T04:18:08.621Z,114.67
2019-04-05T04:20:50.924Z,113.10
2019-04-05T04:23:24.277Z,115.13
2019-04-05T04:25:55.259Z,115.40
2019-04-05T04:28:30.084Z,112.97
2019-04-05T04:31:02.049Z,111.90
2019-04-05T04:33:33.822Z,111.10
2019-04-05T04:36:13.277Z,107.87
2019-04-05T04:38:46.255Z,108.27
2019-04-05T04:41:16.998Z,113.37
2019-04-05T04:43:55.022Z,109.77
2019-04-05T04:46:48.316Z,100.30
2019-04-05T04:49:24.226Z,102.67
2019-04-05T04:51:55.410Z,91.10
2019-04-05T04:54:25.833Z,125.17
2019-04-05T04:57:01.427Z,104.00
2019-04-05T04:59:37.861Z,102.87
2019-04-05T05:02:11.104Z,96.60
2019-04-05T05:04:41.634Z,100.87
2019-04-05T05:07:13.905Z,92.53
2019-04-05T05:09:44.639Z,98.73
2019-04-05T05:12:15.236Z,100.43
2019-04-05T05:14:51.790Z,90.37
2019-04-05T05:17:23.724Z,104.37
2019-04-05T05:22:52.003Z,82.23
2019-04-05T05:25:24.791Z,96.70
2019-04-05T05:27:55.424Z,97.80
2019-04-05T05:30:31.814Z,91.30
2019-04-05T05:33:04.225Z,86.30
2019-04-05T05:35:36.589Z,94.13
2019-04-05T05:38:06.985Z,89.40
2019-04-05T05:40:40.146Z,103.17
2019-04-05T05:43:13.438Z,95.50
2019-04-05T05:45:45.707Z,97.45
2019-04-05T05:48:17.296Z,87.60
2019-04-05T05:50:50.559Z,95.57
2019-04-05T05:53:23.689Z,91.67
2019-04-05T05:55:54.238Z,100.00
2019-04-05T05:58:31.258Z,95.15
2019-04-05T06:01:03.588Z,86.37
2019-04-05T06:03:33.986Z,94.58
2019-04-05T06:06:04.970Z,93.20
2019-04-05T06:08:35.821Z,85.50
2019-04-05T06:11:06.231Z,91.57
2019-04-05T06:13:39.683Z,95.55
2019-04-05T06:16:10.404Z,91.90
2019-04-05T06:18:44.004Z,91.70
2019-04-05T06:21:19.591Z,97.57
2019-04-05T06:23:48.817Z,94.87
2019-04-05T06:26:26.686Z,94.07
2019-04-05T06:28:59.078Z,88.03
2019-04-05T06:31:31.739Z,96.77
2019-04-05T06:34:02.215Z,93.03
2019-04-05T06:36:37.316Z,105.37
2019-04-05T06:39:11.577Z,97.27
2019-04-05T06:41:42.552Z,99.97
2019-04-05T06:44:13.013Z,96.27
2019-04-05T06:46:47.176Z,89.60
2019-04-05T06:49:17.555Z,95.47
2019-04-05T06:51:52.660Z,98.80
2019-04-05T06:54:23.193Z,94.83
2019-04-05T06:56:53.837Z,88.30
2019-04-05T06:59:25.341Z,97.67
2019-04-05T07:01:56.068Z,93.47
2019-04-05T07:04:26.556Z,85.03
2019-04-05T07:07:03.201Z,85.95
2019-04-05T07:09:40.898Z,93.97
2019-04-05T07:12:11.602Z,91.47
2019-04-05T07:14:52.508Z,87.30
2019-04-05T07:17:27.440Z,81.60
2019-04-05T07:20:00.963Z,78.20
2019-04-05T07:22:37.237Z,78.53
2019-04-05T07:25:11.262Z,69.03
2019-04-05T07:27:41.684Z,70.53
2019-04-05T07:30:12.692Z,72.80
2019-04-05T07:32:53.608Z,64.53
2019-04-05T07:35:33.329Z,61.47
2019-04-05T07:38:00.163Z,56.67
2019-04-05T07:40:31.675Z,43.83
2019-04-05T07:43:04.224Z,32.73
2019-04-05T07:45:41.098Z,27.77
2019-04-05T07:48:10.735Z,27.47
2019-04-05T07:50:44.149Z,12.40
2019-04-05T07:53:16.029Z,22.57
2019-04-05T07:55:46.417Z,19.10
2019-04-05T07:58:21.214Z,15.93
2019-04-05T08:00:56.659Z,18.87
2019-04-05T08:03:27.326Z,22.57
2019-04-05T08:06:01.039Z,14.57
2019-04-05T08:08:46.435Z,17.50
2019-04-05T08:11:17.695Z,17.77
2019-04-05T08:13:50.221Z,17.53
2019-04-05T08:16:22.037Z,13.10
2019-04-05T08:18:58.109Z,16.00
2019-04-05T08:21:25.994Z,12.60
2019-04-05T08:23:56.450Z,13.10
2019-04-05T08:26:26.854Z,17.17
2019-04-05T08:29:01.097Z,11.13
2019-04-05T08:31:31.556Z,12.13
2019-04-05T08:34:01.968Z,10.17
2019-04-05T08:36:34.091Z,11.07
2019-04-05T08:39:11.237Z,11.70
2019-04-05T08:41:46.855Z,12.63
2019-04-05T08:44:28.048Z,11.97
2019-04-05T08:46:59.972Z,13.63
2019-04-05T08:49:36.106Z,10.23
2019-04-05T08:52:08.249Z,10.40
2019-04-05T08:54:44.892Z,13.40
2019-04-05T08:57:20.721Z,14.00
2019-04-05T08:59:53.445Z,15.13
2019-04-05T09:02:24.549Z,17.33
2019-04-05T09:05:03.211Z,14.37
2019-04-05T09:07:33.567Z,16.07
2019-04-05T09:10:07.622Z,13.30
2019-04-05T09:12:42.465Z,17.80
2019-04-05T09:15:17.084Z,15.50
2019-04-05T09:17:49.356Z,18.17
2019-04-05T09:20:21.454Z,19.07
2019-04-05T09:22:51.643Z,20.63
2019-04-05T09:25:25.475Z,16.37
2019-04-05T09:28:02.213Z,17.67
2019-04-05T09:30:32.706Z,16.60
2019-04-05T09:33:03.101Z,20.00
2019-04-05T09:35:36.679Z,21.80
2019-04-05T09:38:07.088Z,18.43
2019-04-05T09:40:38.740Z,18.63
2019-04-05T09:43:19.104Z,20.93
2019-04-05T09:45:49.521Z,17.97
2019-04-05T09:48:25.641Z,21.67
2019-04-05T09:50:56.933Z,19.17
2019-04-05T09:53:30.247Z,20.00
2019-04-05T09:56:02.292Z,24.03
2019-04-05T09:58:35.811Z,19.80
2019-04-05T10:01:10.721Z,20.80
2019-04-05T10:03:50.189Z,20.53
2019-04-05T10:06:20.687Z,23.73
2019-04-05T10:08:51.161Z,23.27
2019-04-05T10:11:21.930Z,20.17
2019-04-05T10:13:52.382Z,17.70
2019-04-05T10:16:30.555Z,19.63
2019-04-05T10:19:01.194Z,19.13
2019-04-05T10:21:31.569Z,16.47
2019-04-05T10:24:04.552Z,18.10
2019-04-05T10:26:37.067Z,18.37
2019-04-05T10:29:12.576Z,18.70
2019-04-05T10:31:44.683Z,17.33
2019-04-05T10:34:19.291Z,15.60
2019-04-05T10:36:49.826Z,21.30
2019-04-05T10:39:20.504Z,18.77
2019-04-05T10:42:03.273Z,20.20
2019-04-05T10:44:32.031Z,21.48
2019-04-05T10:47:02.865Z,19.30
2019-04-05T10:49:44.688Z,23.37
2019-04-05T10:52:17.682Z,18.97
2019-04-05T10:54:49.143Z,22.83
2019-04-05T10:57:19.532Z,19.30
2019-04-05T10:59:58.464Z,23.20
2019-04-05T11:02:36.728Z,18.03
2019-04-05T11:05:08.666Z,20.53
2019-04-05T11:07:48.649Z,19.73
2019-04-05T11:10:22.119Z,17.50
2019-04-05T11:12:53.815Z,17.07
2019-04-05T11:15:24.223Z,18.50
2019-04-05T11:17:54.633Z,21.30
2019-04-05T11:20:25.022Z,17.10
2019-04-05T11:22:57.096Z,20.83
2019-04-05T11:25:27.513Z,20.27
2019-04-05T11:27:57.960Z,18.53
2019-04-05T11:30:45.672Z,19.83
2019-04-05T11:33:19.281Z,17.90
2019-04-05T11:35:48.428Z,15.83
2019-04-05T11:38:20.158Z,17.23
2019-04-05T11:40:51.049Z,24.60
2019-04-05T11:43:26.156Z,16.83
2019-04-05T11:45:58.297Z,19.80
2019-04-05T11:48:31.481Z,22.13
2019-04-05T11:51:01.983Z,20.30
2019-04-05T11:53:32.403Z,19.17
2019-04-05T11:56:13.962Z,17.57
2019-04-05T11:58:34.948Z,22.23
2019-04-05T12:01:07.418Z,18.13
2019-04-05T12:03:37.939Z,18.97
2019-04-05T12:06:08.373Z,22.87
2019-04-05T12:08:38.859Z,18.80
2019-04-05T12:11:09.284Z,18.23
2019-04-05T12:13:39.702Z,19.70
2019-04-05T12:16:10.593Z,19.57
2019-04-05T12:18:41.477Z,19.13
2019-04-05T12:21:16.885Z,21.83
2019-04-05T12:23:47.479Z,21.77
2019-04-05T12:26:18.044Z,19.80
2019-04-05T12:28:50.007Z,20.97
2019-04-05T12:31:21.300Z,28.80
2019-04-05T12:33:54.522Z,19.17
2019-04-05T12:36:25.168Z,18.87
2019-04-05T12:38:55.683Z,17.83
2019-04-05T12:41:26.720Z,22.90
2019-04-05T12:44:04.584Z,19.57
2019-04-05T12:46:35.278Z,23.17
2019-04-05T12:49:15.297Z,19.77
2019-04-05T12:51:43.353Z,18.50
2019-04-05T12:54:15.390Z,21.33
2019-04-05T12:56:50.352Z,20.53
2019-04-05T12:59:20.928Z,22.47
2019-04-05T13:01:54.301Z,19.47
2019-04-05T13:04:24.724Z,21.33
2019-04-05T13:06:55.350Z,22.77
2019-04-05T13:09:27.740Z,19.17
2019-04-05T13:11:58.223Z,21.30
2019-04-05T13:14:28.911Z,19.73
2019-04-05T13:17:12.630Z,22.17
2019-04-05T13:19:54.777Z,19.10
2019-04-05T13:22:34.049Z,21.70
2019-04-05T13:25:11.609Z,25.60
2019-04-05T13:27:42.604Z,24.53
2019-04-05T13:33:28.882Z,17.73
2019-04-05T13:35:59.999Z,18.07
2019-04-05T13:38:32.144Z,20.27
2019-04-05T13:41:04.142Z,20.50
2019-04-05T13:43:37.555Z,19.53
2019-04-05T13:46:07.942Z,19.90
2019-04-05T13:48:42.826Z,18.60
2019-04-05T13:51:13.296Z,20.97
2019-04-05T13:53:43.909Z,19.27
2019-04-05T13:56:14.508Z,23.10
2019-04-05T13:58:47.862Z,17.90
2019-04-05T14:01:18.489Z,21.30
2019-04-05T14:03:50.737Z,25.37
2019-04-05T14:06:21.468Z,22.30
2019-04-05T14:08:54.568Z,22.20
2019-04-05T14:11:27.339Z,21.50
2019-04-05T14:13:57.849Z,21.97
2019-04-05T14:16:28.872Z,22.07
2019-04-05T14:18:59.286Z,23.47
2019-04-05T14:21:39.812Z,23.23
2019-04-05T14:24:21.397Z,23.77
2019-04-05T14:26:51.678Z,22.03
2019-04-05T14:29:22.104Z,23.80
2019-04-05T14:31:52.720Z,25.20
2019-04-05T14:34:23.718Z,22.57
2019-04-05T14:36:57.496Z,25.00
2019-04-05T14:39:29.035Z,30.80
2019-04-05T14:42:09.049Z,23.50
2019-04-05T14:44:31.469Z,21.27
2019-04-05T14:47:02.588Z,24.47
2019-04-05T14:49:34.544Z,27.07
2019-04-05T14:52:04.994Z,23.93
2019-04-05T14:54:35.937Z,23.53
2019-04-05T14:57:06.742Z,24.33
2019-04-05T14:59:38.843Z,22.07
2019-04-05T15:02:10.306Z,22.73
2019-04-05T15:04:41.798Z,24.37
2019-04-05T15:07:12.335Z,26.43
2019-04-05T15:09:43.560Z,26.67
2019-04-05T15:12:14.173Z,28.23
2019-04-05T15:14:44.574Z,31.37
2019-04-05T15:17:15.075Z,27.13
2019-04-05T15:19:45.449Z,26.27
2019-04-05T15:22:16.024Z,29.77
2019-04-05T15:24:50.445Z,30.07
2019-04-05T15:27:21.666Z,27.67
2019-04-05T15:29:55.332Z,30.97
2019-04-05T15:32:25.451Z,29.70
2019-04-05T15:34:58.958Z,30.80
2019-04-05T15:37:31.766Z,29.97
2019-04-05T15:40:00.893Z,29.70
2019-04-05T15:42:31.678Z,25.83
2019-04-05T15:45:02.024Z,27.77
2019-04-05T15:47:32.548Z,22.23
2019-04-05T15:50:03.031Z,24.13
2019-04-05T15:52:36.533Z,21.87
2019-04-05T15:55:08.133Z,28.07
2019-04-05T15:57:39.564Z,22.70
2019-04-05T16:00:13.300Z,26.10
2019-04-05T16:02:45.275Z,22.20
2019-04-05T16:05:16.804Z,25.20
2019-04-05T16:07:47.774Z,27.60
2019-04-05T16:10:18.194Z,32.13
2019-04-05T16:12:48.669Z,26.67
2019-04-05T16:15:19.062Z,33.90
2019-04-05T16:17:49.471Z,36.93
2019-04-05T16:20:20.533Z,31.37
2019-04-05T16:22:50.971Z,33.03
2019-04-05T16:25:22.956Z,36.57
2019-04-05T16:27:53.407Z,37.03
2019-04-05T16:30:23.863Z,37.93
2019-04-05T16:32:54.556Z,44.70
2019-04-05T16:35:24.999Z,49.83
2019-04-05T16:37:55.393Z,59.03
2019-04-05T16:40:25.891Z,58.33
2019-04-05T16:43:09.630Z,63.43
2019-04-05T16:45:40.145Z,66.43
2019-04-05T16:48:11.605Z,86.13
2019-04-05T16:50:42.449Z,89.33
2019-04-05T16:53:13.198Z,103.47
2019-04-05T16:55:43.664Z,105.43
2019-04-05T16:58:14.564Z,114.27
2019-04-05T17:00:45.059Z,113.23
2019-04-05T17:03:15.463Z,108.53
2019-04-05T17:05:47.467Z,115.77
2019-04-05T17:08:18.159Z,102.83
2019-04-05T17:10:48.679Z,101.07
2019-04-05T17:13:19.378Z,95.43
2019-04-05T17:15:49.894Z,96.97
2019-04-05T17:18:20.333Z,96.10
2019-04-05T17:20:50.944Z,92.67
2019-04-05T17:23:21.903Z,109.80
2019-04-05T17:29:48.674Z,101.43
2019-04-05T17:32:19.192Z,108.20
2019-04-05T17:34:49.562Z,106.93
2019-04-05T17:37:19.964Z,152.30
2019-04-05T17:39:52.286Z,116.00
2019-04-05T17:42:22.702Z,110.07
2019-04-05T17:44:53.163Z,100.33
2019-04-05T17:47:23.729Z,91.67
2019-04-05T17:49:54.147Z,116.20
2019-04-05T17:52:26.168Z,118.97
2019-04-05T17:54:56.726Z,110.43
2019-04-05T17:57:27.691Z,109.23
2019-04-05T17:59:58.851Z,97.20
2019-04-05T18:02:29.436Z,102.80
2019-04-05T18:05:02.712Z,107.80
2019-04-05T18:07:33.204Z,107.07
2019-04-05T18:10:07.366Z,114.00
2019-04-05T18:12:39.341Z,103.83
2019-04-05T18:15:12.094Z,105.40
2019-04-05T18:17:42.232Z,115.97
2019-04-05T18:20:13.781Z,118.17
2019-04-05T18:22:45.763Z,133.87
2019-04-05T18:25:16.199Z,127.10
2019-04-05T18:27:46.626Z,122.80
2019-04-05T18:30:18.547Z,133.20
2019-04-05T18:32:48.971Z,125.53
2019-04-05T18:35:21.855Z,123.37
2019-04-05T18:37:52.316Z,104.70
2019-04-05T18:40:22.814Z,119.27
2019-04-05T18:42:53.362Z,121.10
2019-04-05T18:45:25.470Z,125.50
2019-04-05T18:47:57.467Z,113.63
2019-04-05T18:50:28.308Z,131.40
2019-04-05T18:52:59.147Z,108.57
2019-04-05T18:55:29.642Z,109.37
2019-04-05T18:58:00.029Z,127.30
2019-04-05T19:00:30.498Z,90.97
2019-04-05T19:03:03.353Z,92.70
2019-04-05T19:05:33.858Z,105.27
2019-04-05T19:08:04.208Z,90.83
2019-04-05T19:10:37.339Z,93.17
2019-04-05T19:13:06.752Z,96.33
2019-04-05T19:15:37.271Z,92.47
2019-04-05T19:18:07.801Z,93.33
2019-04-05T19:20:38.204Z,86.57
2019-04-05T19:23:08.753Z,108.13
2019-04-05T19:25:39.185Z,104.03
2019-04-05T19:28:10.890Z,95.83
2019-04-05T19:51:02.514Z,71.70
2019-04-05T19:53:32.968Z,69.63
2019-04-05T19:56:03.392Z,74.83
2019-04-05T19:58:33.922Z,84.43
2019-04-05T20:01:04.557Z,89.03
2019-04-05T20:03:34.950Z,83.67
2019-04-05T20:06:07.719Z,77.30
2019-04-05T20:08:41.176Z,73.20
2019-04-05T20:11:11.645Z,73.70
2019-04-05T20:13:41.997Z,70.70
2019-04-05T20:16:12.791Z,73.45
2019-04-05T20:18:43.362Z,69.67
2019-04-05T20:21:13.865Z,69.63
2019-04-05T20:23:52.837Z,70.80
2019-04-05T20:26:23.431Z,68.43
2019-04-05T20:28:54.194Z,77.47
2019-04-05T20:31:24.723Z,68.50
2019-04-05T20:33:58.156Z,54.03
2019-04-05T20:36:33.870Z,76.00
2019-04-05T20:39:06.326Z,69.77
2019-04-05T20:41:36.852Z,93.87
2019-04-05T20:44:07.277Z,103.93
2019-04-05T20:46:40.018Z,108.00
2019-04-05T20:49:12.018Z,116.40
2019-04-05T20:51:42.638Z,104.87
2019-04-05T20:54:13.132Z,109.17
2019-04-05T20:56:43.590Z,119.43
2019-04-05T20:59:13.998Z,132.22
2019-04-05T21:01:44.411Z,108.60
2019-04-05T21:04:16.338Z,91.80
2019-04-05T21:06:48.388Z,87.47
2019-04-05T21:09:23.589Z,99.20
2019-04-05T21:11:54.083Z,94.43
2019-04-05T21:14:24.461Z,95.33
2019-04-05T21:16:54.937Z,109.67
2019-04-05T21:19:25.353Z,93.40
2019-04-05T21:21:59.544Z,102.77
2019-04-05T21:24:36.152Z,111.53
2019-04-05T21:27:02.364Z,102.53
2019-04-05T21:29:33.458Z,99.60
2019-04-05T21:32:05.036Z,101.93
2019-04-05T21:34:35.411Z,92.65
2019-04-05T21:37:05.841Z,83.10
2019-04-05T21:39:36.274Z,102.03
2019-04-05T21:42:07.758Z,80.87
2019-04-05T21:44:38.505Z,87.50
2019-04-05T21:47:09.172Z,73.47
2019-04-05T21:49:39.612Z,72.07
2019-04-05T21:52:10.150Z,69.63
2019-04-05T21:54:47.397Z,88.87
2019-04-05T21:57:12.736Z,89.80
2019-04-05T21:59:43.207Z,67.67
2019-04-05T22:02:13.665Z,79.90
2019-04-05T22:04:44.108Z,77.83
2019-04-05T22:07:14.714Z,73.47
2019-04-05T22:09:45.149Z,84.93
2019-04-05T22:12:15.573Z,88.92
2019-04-05T22:14:45.976Z,83.50
2019-04-05T22:17:16.493Z,66.53
2019-04-05T22:19:46.838Z,76.77
2019-04-05T22:22:17.316Z,72.43
2019-04-05T22:24:58.540Z,63.27
2019-04-05T22:27:19.805Z,61.67
2019-04-05T22:29:50.200Z,65.70
2019-04-05T22:32:20.651Z,65.57
2019-04-05T22:34:51.065Z,79.30
2019-04-05T22:37:21.483Z,72.03
2019-04-05T22:39:51.835Z,81.00
2019-04-05T22:42:22.276Z,71.97
2019-04-05T22:44:52.750Z,71.40
2019-04-05T22:47:23.132Z,71.43
2019-04-05T22:49:53.578Z,69.63
2019-04-05T22:52:24.159Z,76.10
2019-04-05T22:54:54.610Z,71.87
2019-04-05T22:57:24.994Z,94.13
2019-04-05T22:59:55.429Z,80.07
2019-04-05T23:02:25.817Z,74.33
2019-04-05T23:04:56.227Z,70.40
2019-04-05T23:07:29.641Z,75.13
2019-04-05T23:10:00.044Z,66.50
2019-04-05T23:12:30.493Z,69.43
2019-04-05T23:15:00.992Z,55.30
2019-04-05T23:17:31.430Z,59.07
2019-04-05T23:20:01.828Z,64.77
2019-04-05T23:22:34.443Z,56.47
2019-04-05T23:25:21.761Z,54.57
2019-04-05T23:27:46.128Z,61.73
2019-04-05T23:30:18.653Z,58.33
2019-04-05T23:32:49.059Z,55.93
2019-04-05T23:35:19.550Z,53.17
2019-04-05T23:37:49.924Z,57.80
2019-04-05T23:40:20.427Z,53.97
2019-04-05T23:42:50.871Z,62.77
2019-04-05T23:45:21.356Z,50.83
2019-04-05T23:47:51.823Z,48.93
2019-04-05T23:50:22.221Z,52.03
2019-04-05T23:52:52.618Z,53.23
2019-04-05T23:55:32.774Z,56.00
2019-04-05T23:57:55.107Z,59.10
